createdAt,value
2018-02-19T00:00:41.293Z,20.03
2018-02-19T00:03:08.809Z,21.57
2018-02-19T00:05:36.298Z,24.10
2018-02-19T00:08:03.775Z,21.00
2018-02-19T00:10:31.391Z,20.73
2018-02-19T00:12:58.869Z,21.17
2018-02-19T00:15:26.375Z,21.07
2018-02-19T00:17:54.602Z,21.33
2018-02-19T00:20:22.141Z,20.87
2018-02-19T00:22:49.633Z,22.13
2018-02-19T00:25:17.132Z,20.07
2018-02-19T00:27:45.371Z,19.97
2018-02-19T00:30:12.917Z,20.93
2018-02-19T00:32:40.446Z,19.33
2018-02-19T00:35:08.674Z,21.70
2018-02-19T00:37:36.154Z,18.80
2018-02-19T00:40:04.463Z,20.77
2018-02-19T00:42:31.937Z,18.87
2018-02-19T00:44:59.446Z,21.40
2018-02-19T00:47:27.684Z,22.33
2018-02-19T00:49:55.206Z,20.63
2018-02-19T00:52:22.705Z,20.87
2018-02-19T00:54:50.212Z,18.97
2018-02-19T00:57:17.701Z,22.70
2018-02-19T00:59:45.204Z,18.93
2018-02-19T01:02:12.699Z,18.67
2018-02-19T01:04:40.172Z,18.40
2018-02-19T01:07:07.717Z,18.10
2018-02-19T01:09:35.203Z,16.80
2018-02-19T01:12:02.679Z,15.93
2018-02-19T01:14:30.186Z,15.53
2018-02-19T01:16:57.750Z,15.93
2018-02-19T01:19:25.255Z,16.87
2018-02-19T01:21:52.726Z,18.20
2018-02-19T01:24:20.983Z,18.13
2018-02-19T01:26:48.500Z,18.07
2018-02-19T01:29:16.002Z,17.53
2018-02-19T01:31:43.473Z,17.57
2018-02-19T01:34:10.971Z,16.40
2018-02-19T01:36:38.455Z,16.90
2018-02-19T01:39:05.963Z,17.40
2018-02-19T01:41:34.193Z,19.17
2018-02-19T01:44:01.701Z,17.03
2018-02-19T01:46:29.931Z,20.10
2018-02-19T01:48:57.447Z,14.53
2018-02-19T01:51:24.943Z,14.50
2018-02-19T01:53:52.451Z,14.53
2018-02-19T01:56:20.747Z,17.30
2018-02-19T01:58:48.351Z,16.03
2018-02-19T02:01:15.810Z,17.87
2018-02-19T02:03:44.169Z,16.30
2018-02-19T02:06:11.676Z,16.10
2018-02-19T02:08:39.948Z,18.87
2018-02-19T02:11:08.188Z,20.07
2018-02-19T02:13:35.789Z,18.23
2018-02-19T02:16:04.032Z,18.60
2018-02-19T02:18:31.491Z,16.80
2018-02-19T02:20:58.986Z,15.50
2018-02-19T02:23:26.456Z,14.43
2018-02-19T02:25:53.960Z,14.23
2018-02-19T02:28:21.428Z,16.53
2018-02-19T02:30:48.936Z,16.20
2018-02-19T02:33:16.420Z,13.90
2018-02-19T02:35:43.953Z,17.20
2018-02-19T02:38:11.429Z,16.00
2018-02-19T02:40:38.936Z,17.03
2018-02-19T02:43:07.179Z,14.67
2018-02-19T02:45:34.702Z,14.47
2018-02-19T02:48:02.190Z,13.17
2018-02-19T02:50:29.701Z,15.43
2018-02-19T02:52:57.165Z,13.53
2018-02-19T02:55:24.671Z,15.33
2018-02-19T02:57:52.127Z,14.83
2018-02-19T03:00:19.622Z,13.80
2018-02-19T03:02:47.857Z,14.83
2018-02-19T03:05:15.347Z,13.73
2018-02-19T03:07:43.657Z,13.20
2018-02-19T03:10:11.156Z,13.57
2018-02-19T03:12:38.631Z,13.70
2018-02-19T03:15:06.144Z,14.27
2018-02-19T03:17:33.608Z,14.63
2018-02-19T03:20:01.117Z,12.67
2018-02-19T03:22:29.342Z,13.73
2018-02-19T03:24:57.613Z,13.23
2018-02-19T03:27:25.158Z,13.87
2018-02-19T03:29:52.669Z,15.30
2018-02-19T03:32:20.134Z,15.17
2018-02-19T03:34:47.938Z,14.17
2018-02-19T03:37:15.407Z,15.27
2018-02-19T03:39:42.916Z,15.47
2018-02-19T03:42:11.231Z,16.47
2018-02-19T03:44:38.773Z,15.83
2018-02-19T03:47:06.244Z,16.70
2018-02-19T03:49:33.808Z,15.27
2018-02-19T03:52:01.306Z,16.90
2018-02-19T03:54:28.790Z,15.53
2018-02-19T03:56:57.047Z,15.20
2018-02-19T03:59:24.516Z,15.60
2018-02-19T04:01:52.814Z,15.40
2018-02-19T04:04:21.044Z,16.17
2018-02-19T04:06:48.559Z,13.00
2018-02-19T04:09:16.022Z,14.70
2018-02-19T04:11:43.537Z,13.83
2018-02-19T04:14:11.042Z,13.23
2018-02-19T04:16:39.779Z,14.20
2018-02-19T04:19:07.273Z,10.73
2018-02-19T04:21:34.774Z,11.33
2018-02-19T04:24:02.265Z,14.30
2018-02-19T04:26:30.551Z,13.10
2018-02-19T04:28:58.809Z,13.13
2018-02-19T04:31:26.303Z,14.23
2018-02-19T04:33:53.797Z,13.77
2018-02-19T04:36:21.300Z,13.90
2018-02-19T04:38:49.576Z,13.37
2018-02-19T04:41:17.824Z,12.87
2018-02-19T04:43:45.328Z,12.50
2018-02-19T04:46:22.705Z,10.50
2018-02-19T04:48:50.981Z,12.87
2018-02-19T04:51:19.226Z,12.47
2018-02-19T04:53:46.726Z,14.53
2018-02-19T04:56:14.192Z,12.40
2018-02-19T04:58:41.700Z,12.50
2018-02-19T05:01:09.160Z,14.53
2018-02-19T05:03:36.675Z,12.50
2018-02-19T05:06:04.153Z,11.90
2018-02-19T05:08:31.647Z,11.60
2018-02-19T05:10:59.895Z,12.17
2018-02-19T05:13:27.398Z,14.23
2018-02-19T05:15:55.693Z,13.53
2018-02-19T05:18:23.202Z,14.63
2018-02-19T05:20:50.727Z,12.97
2018-02-19T05:23:18.188Z,12.43
2018-02-19T05:25:45.717Z,13.07
2018-02-19T05:28:13.179Z,14.57
2018-02-19T05:30:40.696Z,15.00
2018-02-19T05:33:08.160Z,15.00
2018-02-19T05:35:35.653Z,13.70
2018-02-19T05:38:03.133Z,13.63
2018-02-19T05:40:30.641Z,16.33
2018-02-19T05:42:58.891Z,17.07
2018-02-19T05:45:26.395Z,14.90
2018-02-19T05:47:53.953Z,18.00
2018-02-19T05:50:21.402Z,21.43
2018-02-19T05:52:49.684Z,15.33
2018-02-19T05:55:17.148Z,14.80
2018-02-19T05:57:44.644Z,15.00
2018-02-19T06:00:12.172Z,14.67
2018-02-19T06:02:39.690Z,19.30
2018-02-19T06:05:07.219Z,24.33
2018-02-19T06:07:34.718Z,16.70
2018-02-19T06:10:02.216Z,15.67
2018-02-19T06:12:29.731Z,16.97
2018-02-19T06:14:57.211Z,13.93
2018-02-19T06:17:24.723Z,15.73
2018-02-19T06:19:52.197Z,13.40
2018-02-19T06:22:19.662Z,13.30
2018-02-19T06:24:48.774Z,14.90
2018-02-19T06:27:16.999Z,14.40
2018-02-19T06:29:44.517Z,16.63
2018-02-19T06:32:12.065Z,19.40
2018-02-19T06:34:39.570Z,16.03
2018-02-19T06:37:07.046Z,16.70
2018-02-19T06:39:34.592Z,17.57
2018-02-19T06:42:02.047Z,17.63
2018-02-19T06:44:29.546Z,17.10
2018-02-19T06:46:57.800Z,17.17
2018-02-19T06:49:25.330Z,16.20
2018-02-19T06:51:53.767Z,18.77
2018-02-19T06:54:22.054Z,18.13
2018-02-19T06:56:49.534Z,18.43
2018-02-19T06:59:17.834Z,18.43
2018-02-19T07:01:45.332Z,17.10
2018-02-19T07:04:13.564Z,16.90
2018-02-19T07:06:41.074Z,18.17
2018-02-19T07:09:08.545Z,16.00
2018-02-19T07:11:36.044Z,17.23
2018-02-19T07:14:03.527Z,16.80
2018-02-19T07:16:31.009Z,14.20
2018-02-19T07:18:58.471Z,18.70
2018-02-19T07:21:25.987Z,16.60
2018-02-19T07:23:54.073Z,16.90
2018-02-19T07:26:22.328Z,16.30
2018-02-19T07:28:49.810Z,17.47
2018-02-19T07:31:17.364Z,18.00
2018-02-19T07:33:46.484Z,16.30
2018-02-19T07:36:14.099Z,16.23
2018-02-19T07:38:41.585Z,16.83
2018-02-19T07:41:09.827Z,20.07
2018-02-19T07:43:37.328Z,17.43
2018-02-19T07:46:05.560Z,17.67
2018-02-19T07:48:33.819Z,17.97
2018-02-19T07:51:01.288Z,16.17
2018-02-19T07:53:28.787Z,18.43
2018-02-19T07:55:57.035Z,18.40
2018-02-19T07:58:24.524Z,15.07
2018-02-19T08:00:52.016Z,17.60
2018-02-19T08:03:19.526Z,16.00
2018-02-19T08:05:47.023Z,14.50
2018-02-19T08:08:14.549Z,17.17
2018-02-19T08:10:42.801Z,17.60
2018-02-19T08:13:10.315Z,16.03
2018-02-19T08:15:37.799Z,15.20
2018-02-19T08:18:05.331Z,13.90
2018-02-19T08:20:32.826Z,14.77
2018-02-19T08:23:00.334Z,13.23
2018-02-19T08:25:27.812Z,14.30
2018-02-19T08:27:55.442Z,14.07
2018-02-19T08:30:23.705Z,15.33
2018-02-19T08:32:51.169Z,13.93
2018-02-19T08:35:19.442Z,15.40
2018-02-19T08:37:47.684Z,14.53
2018-02-19T08:40:15.189Z,13.57
2018-02-19T08:42:43.429Z,12.80
2018-02-19T08:45:10.920Z,15.60
2018-02-19T08:47:39.170Z,16.23
2018-02-19T08:50:06.659Z,16.17
2018-02-19T08:52:34.140Z,16.50
2018-02-19T08:55:01.631Z,17.07
2018-02-19T08:57:29.116Z,17.40
2018-02-19T08:59:57.380Z,15.17
2018-02-19T09:02:24.860Z,18.83
2018-02-19T09:04:52.453Z,17.00
2018-02-19T09:07:19.958Z,15.40
2018-02-19T09:09:47.443Z,14.93
2018-02-19T09:12:14.946Z,18.17
2018-02-19T09:14:42.443Z,17.53
2018-02-19T09:17:10.709Z,19.63
2018-02-19T09:19:38.982Z,19.63
2018-02-19T09:22:06.482Z,15.80
2018-02-19T09:24:34.029Z,13.83
2018-02-19T09:27:01.457Z,15.60
2018-02-19T09:29:28.972Z,16.20
2018-02-19T09:31:56.442Z,13.60
2018-02-19T09:34:23.948Z,16.17
2018-02-19T09:36:52.184Z,13.33
2018-02-19T09:39:19.717Z,19.50
2018-02-19T09:41:47.179Z,15.10
2018-02-19T09:44:14.731Z,17.40
2018-02-19T09:46:42.224Z,16.03
2018-02-19T09:49:09.697Z,16.83
2018-02-19T09:51:37.213Z,15.37
2018-02-19T09:54:04.732Z,16.27
2018-02-19T09:56:32.974Z,16.90
2018-02-19T09:59:00.495Z,14.87
2018-02-19T10:01:28.024Z,15.67
2018-02-19T10:03:56.289Z,16.50
2018-02-19T10:06:23.781Z,15.13
2018-02-19T10:08:51.257Z,13.03
2018-02-19T10:11:18.761Z,15.90
2018-02-19T10:13:46.218Z,16.67
2018-02-19T10:16:14.499Z,15.33
2018-02-19T10:18:41.961Z,15.67
2018-02-19T10:21:10.423Z,14.30
2018-02-19T10:23:37.860Z,13.00
2018-02-19T10:26:05.420Z,13.30
2018-02-19T10:28:32.894Z,13.27
2018-02-19T10:31:00.403Z,12.13
2018-02-19T10:33:27.926Z,12.87
2018-02-19T10:35:55.470Z,14.70
2018-02-19T10:38:22.936Z,12.37
2018-02-19T10:40:50.477Z,15.80
2018-02-19T10:43:17.931Z,12.93
2018-02-19T10:45:45.468Z,14.87
2018-02-19T10:48:12.940Z,12.77
2018-02-19T10:50:40.443Z,14.30
2018-02-19T10:53:08.673Z,13.50
2018-02-19T10:55:36.189Z,14.03
2018-02-19T10:58:03.668Z,14.93
2018-02-19T11:00:36.837Z,14.53
2018-02-19T11:03:04.312Z,13.43
2018-02-19T11:05:31.833Z,15.40
2018-02-19T11:08:00.073Z,15.43
2018-02-19T11:10:27.578Z,14.13
2018-02-19T11:12:55.834Z,14.27
2018-02-19T11:15:23.326Z,15.77
2018-02-19T11:17:50.814Z,14.03
2018-02-19T11:20:18.351Z,12.03
2018-02-19T11:22:45.815Z,14.30
2018-02-19T11:25:13.303Z,15.33
2018-02-19T11:27:40.812Z,14.43
2018-02-19T11:30:08.336Z,14.00
2018-02-19T11:32:35.848Z,15.17
2018-02-19T11:35:03.308Z,15.83
2018-02-19T11:37:31.273Z,15.27
2018-02-19T11:39:58.738Z,16.27
2018-02-19T11:42:26.240Z,14.63
2018-02-19T11:44:53.719Z,15.00
2018-02-19T11:47:21.970Z,15.30
2018-02-19T11:49:49.456Z,16.83
2018-02-19T11:52:16.951Z,14.07
2018-02-19T11:54:44.432Z,13.43
2018-02-19T11:57:12.800Z,14.07
2018-02-19T12:02:19.448Z,16.07
2018-02-19T12:04:46.936Z,15.73
2018-02-19T12:07:14.475Z,16.10
2018-02-19T12:09:41.956Z,15.67
2018-02-19T12:12:09.475Z,14.67
2018-02-19T12:14:36.982Z,14.57
2018-02-19T12:17:05.427Z,15.63
2018-02-19T12:19:32.928Z,15.67
2018-02-19T12:22:00.446Z,12.60
2018-02-19T12:24:27.961Z,13.80
2018-02-19T12:26:55.461Z,14.80
2018-02-19T12:29:22.951Z,15.70
2018-02-19T12:31:50.416Z,15.57
2018-02-19T12:34:17.960Z,15.07
2018-02-19T12:36:45.439Z,15.37
2018-02-19T12:39:12.974Z,12.70
2018-02-19T12:41:40.431Z,13.43
2018-02-19T12:44:07.973Z,14.43
2018-02-19T12:46:36.180Z,15.47
2018-02-19T12:49:03.848Z,16.57
2018-02-19T12:51:31.328Z,14.07
2018-02-19T12:53:59.599Z,15.63
2018-02-19T12:56:27.845Z,15.17
2018-02-19T12:58:55.335Z,16.10
2018-02-19T13:01:23.576Z,15.73
2018-02-19T13:03:51.847Z,14.63
2018-02-19T13:06:19.303Z,13.17
2018-02-19T13:08:46.810Z,14.67
2018-02-19T13:11:15.048Z,14.57
2018-02-19T13:13:42.546Z,14.63
2018-02-19T13:16:10.779Z,15.23
2018-02-19T13:18:38.279Z,16.63
2018-02-19T13:21:05.814Z,17.07
2018-02-19T13:23:33.289Z,17.23
2018-02-19T13:26:01.972Z,17.63
2018-02-19T13:28:30.268Z,15.50
2018-02-19T13:30:58.490Z,14.37
2018-02-19T13:33:26.009Z,15.97
2018-02-19T13:35:54.099Z,17.43
2018-02-19T13:38:21.609Z,15.63
2018-02-19T13:40:49.090Z,17.07
2018-02-19T13:43:17.326Z,17.40
2018-02-19T13:45:44.828Z,16.60
2018-02-19T13:48:12.310Z,17.67
2018-02-19T13:50:39.827Z,18.20
2018-02-19T13:53:08.134Z,17.30
2018-02-19T13:55:35.651Z,17.63
2018-02-19T13:58:03.154Z,16.77
2018-02-19T14:00:30.916Z,16.77
2018-02-19T14:02:58.376Z,18.63
2018-02-19T14:05:25.881Z,17.97
2018-02-19T14:07:53.369Z,19.67
2018-02-19T14:10:20.897Z,18.70
2018-02-19T14:12:49.098Z,17.73
2018-02-19T14:15:17.404Z,17.73
2018-02-19T14:17:44.875Z,18.30
2018-02-19T14:20:12.362Z,17.03
2018-02-19T14:22:39.864Z,18.77
2018-02-19T14:25:07.385Z,19.10
2018-02-19T14:27:34.870Z,22.00
2018-02-19T14:30:03.164Z,18.03
2018-02-19T14:32:30.677Z,16.33
2018-02-19T14:34:58.167Z,16.70
2018-02-19T14:37:25.667Z,16.83
2018-02-19T14:39:53.144Z,15.73
2018-02-19T14:42:20.756Z,16.73
2018-02-19T14:44:48.241Z,16.53
2018-02-19T14:47:15.770Z,19.07
2018-02-19T14:49:43.237Z,15.87
2018-02-19T14:52:10.737Z,17.07
2018-02-19T14:54:38.229Z,17.60
2018-02-19T14:57:05.719Z,19.47
2018-02-19T14:59:33.229Z,19.67
2018-02-19T15:02:01.501Z,17.60
2018-02-19T15:04:29.018Z,18.70
2018-02-19T15:06:56.470Z,16.87
2018-02-19T15:09:23.973Z,18.83
2018-02-19T15:11:51.471Z,17.37
2018-02-19T15:14:19.025Z,16.20
2018-02-19T15:16:46.557Z,15.30
2018-02-19T15:19:14.838Z,19.03
2018-02-19T15:21:42.302Z,17.43
2018-02-19T15:24:09.839Z,16.27
2018-02-19T15:26:37.327Z,15.87
2018-02-19T15:29:05.522Z,18.00
2018-02-19T15:31:33.782Z,16.27
2018-02-19T15:34:01.584Z,15.83
2018-02-19T15:36:29.079Z,18.60
2018-02-19T15:38:57.342Z,14.63
2018-02-19T15:41:25.257Z,15.90
2018-02-19T15:43:52.766Z,15.53
2018-02-19T15:46:20.716Z,15.83
2018-02-19T15:48:48.192Z,21.93
2018-02-19T15:51:15.698Z,16.70
2018-02-19T15:53:43.166Z,19.17
2018-02-19T15:56:10.675Z,20.70
2018-02-19T15:58:38.141Z,19.73
2018-02-19T16:01:06.414Z,18.13
2018-02-19T16:03:34.667Z,18.10
2018-02-19T16:06:02.179Z,15.83
2018-02-19T16:08:29.678Z,15.53
2018-02-19T16:10:57.163Z,17.70
2018-02-19T16:13:25.410Z,14.70
2018-02-19T16:15:52.910Z,18.10
2018-02-19T16:18:21.151Z,15.83
2018-02-19T16:20:48.647Z,16.43
2018-02-19T16:23:16.110Z,17.50
2018-02-19T16:25:44.253Z,16.47
2018-02-19T16:28:11.751Z,18.10
2018-02-19T16:30:39.269Z,17.43
2018-02-19T16:33:06.747Z,18.07
2018-02-19T16:35:35.021Z,21.77
2018-02-19T16:38:03.264Z,19.13
2018-02-19T16:40:30.785Z,20.37
2018-02-19T16:42:58.247Z,19.70
2018-02-19T16:45:25.777Z,21.17
2018-02-19T16:47:53.267Z,17.73
2018-02-19T16:50:20.805Z,19.90
2018-02-19T16:52:49.040Z,20.00
2018-02-19T16:55:16.550Z,21.17
2018-02-19T16:57:44.008Z,20.97
2018-02-19T17:00:11.510Z,19.77
2018-02-19T17:02:39.083Z,20.97
2018-02-19T17:05:06.620Z,20.53
2018-02-19T17:07:34.108Z,24.63
2018-02-19T17:10:02.385Z,23.13
2018-02-19T17:12:30.644Z,22.63
2018-02-19T17:14:58.135Z,24.77
2018-02-19T17:17:25.714Z,23.47
2018-02-19T17:19:53.199Z,23.10
2018-02-19T17:22:20.796Z,22.87
2018-02-19T17:24:49.083Z,24.63
2018-02-19T17:27:16.582Z,21.53
2018-02-19T17:29:44.099Z,24.30
2018-02-19T17:32:11.574Z,22.97
2018-02-19T17:34:39.089Z,20.60
2018-02-19T17:37:06.566Z,22.13
2018-02-19T17:39:34.855Z,22.23
2018-02-19T17:42:02.442Z,21.53
2018-02-19T17:44:29.934Z,21.63
2018-02-19T17:46:57.426Z,19.83
2018-02-19T17:49:25.777Z,20.90
2018-02-19T17:51:53.276Z,19.13
2018-02-19T17:54:21.092Z,20.40
2018-02-19T17:56:48.593Z,19.83
2018-02-19T17:59:16.133Z,20.70
2018-02-19T18:01:44.410Z,22.30
2018-02-19T18:04:11.910Z,22.83
2018-02-19T18:06:39.449Z,22.70
2018-02-19T18:09:06.930Z,23.20
2018-02-19T18:11:34.450Z,21.60
2018-02-19T18:14:02.706Z,19.77
2018-02-19T18:16:30.224Z,21.40
2018-02-19T18:18:57.719Z,17.43
2018-02-19T18:21:25.236Z,20.13
2018-02-19T18:23:52.721Z,23.13
2018-02-19T18:26:20.244Z,22.30
2018-02-19T18:28:47.727Z,21.77
2018-02-19T18:31:15.266Z,23.80
2018-02-19T18:33:42.777Z,26.20
2018-02-19T18:36:11.416Z,37.63
2018-02-19T18:38:38.908Z,31.50
2018-02-19T18:41:06.395Z,29.43
2018-02-19T18:43:33.876Z,30.70
2018-02-19T18:46:01.428Z,22.90
2018-02-19T18:48:29.179Z,22.67
2018-02-19T18:50:56.814Z,24.60
2018-02-19T18:53:24.310Z,26.40
2018-02-19T18:55:51.763Z,21.33
2018-02-19T18:58:19.895Z,24.50
2018-02-19T19:00:47.360Z,23.23
2018-02-19T19:03:14.912Z,25.77
2018-02-19T19:05:42.391Z,22.73
2018-02-19T19:08:21.600Z,25.10
2018-02-19T19:10:50.920Z,25.07
2018-02-19T19:13:18.427Z,21.83
2018-02-19T19:15:45.898Z,22.00
2018-02-19T19:18:13.388Z,23.37
2018-02-19T19:20:41.635Z,31.13
2018-02-19T19:23:09.149Z,25.30
2018-02-19T19:25:36.634Z,26.17
2018-02-19T19:28:04.157Z,22.97
2018-02-19T19:30:31.734Z,24.00
2018-02-19T19:32:59.237Z,29.83
2018-02-19T19:35:26.708Z,26.20
2018-02-19T19:37:54.250Z,25.17
2018-02-19T19:40:21.716Z,27.13
2018-02-19T19:42:49.258Z,28.17
2018-02-19T19:45:16.744Z,23.33
2018-02-19T19:47:45.039Z,21.87
2018-02-19T19:50:12.539Z,20.73
2018-02-19T19:52:40.170Z,25.07
2018-02-19T19:55:07.658Z,30.40
2018-02-19T19:57:35.155Z,24.20
2018-02-19T20:00:03.434Z,23.07
2018-02-19T20:02:31.700Z,22.90
2018-02-19T20:04:59.174Z,25.97
2018-02-19T20:07:26.703Z,25.50
2018-02-19T20:09:54.172Z,28.13
2018-02-19T20:12:21.645Z,21.53
2018-02-19T20:14:49.942Z,23.97
2018-02-19T20:17:17.456Z,22.30
2018-02-19T20:19:45.072Z,23.03
2018-02-19T20:22:12.581Z,20.43
2018-02-19T20:24:40.930Z,23.63
2018-02-19T20:27:08.535Z,20.80
2018-02-19T20:29:36.768Z,22.33
2018-02-19T20:32:04.241Z,23.23
2018-02-19T20:34:31.782Z,24.80
2018-02-19T20:36:59.336Z,23.40
2018-02-19T20:39:26.810Z,29.30
2018-02-19T20:41:54.465Z,24.57
2018-02-19T20:44:22.657Z,23.97
2018-02-19T20:46:50.148Z,22.80
2018-02-19T20:49:18.448Z,24.13
2018-02-19T20:51:45.985Z,25.03
2018-02-19T20:54:14.249Z,22.50
2018-02-19T20:56:42.543Z,24.43
2018-02-19T20:59:10.835Z,24.23
2018-02-19T21:01:38.348Z,23.13
2018-02-19T21:04:05.870Z,19.87
2018-02-19T21:06:33.353Z,18.33
2018-02-19T21:09:00.902Z,19.70
2018-02-19T21:11:28.810Z,19.57
2018-02-19T21:13:57.057Z,22.60
2018-02-19T21:16:24.571Z,23.20
2018-02-19T21:18:52.081Z,22.70
2018-02-19T21:21:19.567Z,23.70
2018-02-19T21:23:47.839Z,25.57
2018-02-19T21:26:16.090Z,22.77
2018-02-19T21:28:43.596Z,22.20
2018-02-19T21:31:12.128Z,24.63
2018-02-19T21:33:39.640Z,23.70
2018-02-19T21:36:07.119Z,22.40
2018-02-19T21:38:34.607Z,23.10
2018-02-19T21:41:02.154Z,20.27
2018-02-19T21:43:29.670Z,23.10
2018-02-19T21:45:58.151Z,25.30
2018-02-19T21:48:25.657Z,26.50
2018-02-19T21:50:53.120Z,29.07
2018-02-19T21:53:20.626Z,25.07
2018-02-19T21:55:48.113Z,24.37
2018-02-19T21:58:15.621Z,24.43
2018-02-19T22:00:43.852Z,23.77
2018-02-19T22:03:11.412Z,31.33
2018-02-19T22:05:38.879Z,28.37
2018-02-19T22:08:06.836Z,26.17
2018-02-19T22:10:34.309Z,27.83
2018-02-19T22:13:01.857Z,23.83
2018-02-19T22:15:29.346Z,24.20
2018-02-19T22:17:57.633Z,21.90
2018-02-19T22:20:25.929Z,19.47
2018-02-19T22:22:53.422Z,21.97
2018-02-19T22:25:20.948Z,20.50
2018-02-19T22:27:48.458Z,18.93
2018-02-19T22:30:15.962Z,22.37
2018-02-19T22:32:43.476Z,20.63
2018-02-19T22:35:10.965Z,20.27
2018-02-19T22:37:38.468Z,24.13
2018-02-19T22:40:06.474Z,23.17
2018-02-19T22:42:34.749Z,23.93
2018-02-19T22:45:02.991Z,20.90
2018-02-19T22:47:30.503Z,22.50
2018-02-19T22:49:58.001Z,20.17
2018-02-19T22:52:25.533Z,20.57
2018-02-19T22:54:53.014Z,25.20
2018-02-19T22:57:20.545Z,21.60
2018-02-19T22:59:48.026Z,20.90
2018-02-19T23:02:15.557Z,20.70
2018-02-19T23:04:43.014Z,21.17
2018-02-19T23:07:10.477Z,19.13
2018-02-19T23:09:38.067Z,22.37
2018-02-19T23:12:05.561Z,20.47
2018-02-19T23:14:33.831Z,20.53
2018-02-19T23:17:01.352Z,20.03
2018-02-19T23:19:28.891Z,18.97
2018-02-19T23:21:56.355Z,18.27
2018-02-19T23:24:23.949Z,18.80
2018-02-19T23:26:51.394Z,20.23
2018-02-19T23:29:18.898Z,20.23
2018-02-19T23:31:47.151Z,21.07
2018-02-19T23:34:14.631Z,23.63
2018-02-19T23:36:42.901Z,21.73
2018-02-19T23:39:11.145Z,22.10
2018-02-19T23:41:38.644Z,22.10
2018-02-19T23:44:07.833Z,22.07
2018-02-19T23:46:36.072Z,21.67
2018-02-19T23:49:03.617Z,21.83
2018-02-19T23:51:31.097Z,24.07
2018-02-19T23:53:58.558Z,19.57
2018-02-19T23:56:26.059Z,21.33
2018-02-19T23:58:53.634Z,23.60
